sensor_id;sensor_type;location;lat;lon;timestamp;pressure;altitude;pressure_sealevel;temperature;humidity
75420;BME280;63998;52.488;13.428;2023-05-07T00:00:41;101701.28;;;12.23;70.26
75420;BME280;63998;52.488;13.428;2023-05-07T00:03:07;101703.03;;;12.27;69.75
75420;BME280;63998;52.488;13.428;2023-05-07T00:05:36;101694.38;;;12.28;69.87
75420;BME280;63998;52.488;13.428;2023-05-07T00:08:03;101699.63;;;12.31;69.20
75420;BME280;63998;52.488;13.428;2023-05-07T00:10:28;101702.16;;;12.23;68.18
75420;BME280;63998;52.488;13.428;2023-05-07T00:12:53;101696.09;;;12.26;69.10
75420;BME280;63998;52.488;13.428;2023-05-07T00:15:24;101701.38;;;12.32;69.27
75420;BME280;63998;52.488;13.428;2023-05-07T00:17:49;101699.63;;;12.31;69.98
75420;BME280;63998;52.488;13.428;2023-05-07T00:20:17;101699.66;;;12.37;69.79
75420;BME280;63998;52.488;13.428;2023-05-07T00:22:45;101699.63;;;12.31;68.16
75420;BME280;63998;52.488;13.428;2023-05-07T00:25:10;101694.31;;;12.20;68.19
75420;BME280;63998;52.488;13.428;2023-05-07T00:27:36;101693.34;;;12.14;67.90
75420;BME280;63998;52.488;13.428;2023-05-07T00:30:01;101695.94;;;12.14;68.90
75420;BME280;63998;52.488;13.428;2023-05-07T00:32:28;101687.88;;;11.91;67.69
75420;BME280;63998;52.488;13.428;2023-05-07T00:34:56;101700.94;;;11.93;68.70
75420;BME280;63998;52.488;13.428;2023-05-07T00:37:22;101699.28;;;12.01;69.34
75420;BME280;63998;52.488;13.428;2023-05-07T00:39:47;101695.78;;;12.00;68.99
75420;BME280;63998;52.488;13.428;2023-05-07T00:42:12;101693.09;;;11.91;68.04
75420;BME280;63998;52.488;13.428;2023-05-07T00:44:40;101693.00;;;11.83;68.60
75420;BME280;63998;52.488;13.428;2023-05-07T00:47:05;101697.47;;;11.94;70.20
75420;BME280;63998;52.488;13.428;2023-05-07T00:49:42;101704.47;;;12.01;69.53
75420;BME280;63998;52.488;13.428;2023-05-07T00:52:11;101698.53;;;12.11;69.83
75420;BME280;63998;52.488;13.428;2023-05-07T00:54:40;101688.19;;;12.17;69.24
75420;BME280;63998;52.488;13.428;2023-05-07T00:57:06;101692.44;;;12.09;68.83
75420;BME280;63998;52.488;13.428;2023-05-07T00:59:32;101692.44;;;12.12;69.16
75420;BME280;63998;52.488;13.428;2023-05-07T01:01:58;101694.25;;;12.16;68.95
75420;BME280;63998;52.488;13.428;2023-05-07T01:04:23;101690.75;;;12.15;68.77
75420;BME280;63998;52.488;13.428;2023-05-07T01:06:49;101684.63;;;12.12;68.56
75420;BME280;63998;52.488;13.428;2023-05-07T01:09:20;101695.91;;;12.08;68.66
75420;BME280;63998;52.488;13.428;2023-05-07T01:11:47;101693.31;;;12.09;68.16
75420;BME280;63998;52.488;13.428;2023-05-07T01:14:13;101701.16;;;12.11;68.56
75420;BME280;63998;52.488;13.428;2023-05-07T01:16:40;101699.41;;;12.10;68.20
75420;BME280;63998;52.488;13.428;2023-05-07T01:19:10;101702.91;;;12.15;68.79
75420;BME280;63998;52.488;13.428;2023-05-07T01:21:37;101699.41;;;12.10;68.96
75420;BME280;63998;52.488;13.428;2023-05-07T01:24:05;101701.16;;;12.14;69.92
75420;BME280;63998;52.488;13.428;2023-05-07T01:26:33;101702.06;;;12.16;68.97
75420;BME280;63998;52.488;13.428;2023-05-07T01:28:59;101702.03;;;12.14;67.49
75420;BME280;63998;52.488;13.428;2023-05-07T01:31:24;101704.69;;;12.19;68.07
75420;BME280;63998;52.488;13.428;2023-05-07T01:33:51;101702.91;;;12.15;67.72
75420;BME280;63998;52.488;13.428;2023-05-07T01:36:18;101707.31;;;12.20;68.25
75420;BME280;63998;52.488;13.428;2023-05-07T01:38:47;101691.66;;;12.17;68.88
75420;BME280;63998;52.488;13.428;2023-05-07T01:41:13;101700.34;;;12.18;68.47
75420;BME280;63998;52.488;13.428;2023-05-07T01:43:40;101703.00;;;12.21;69.72
75420;BME280;63998;52.488;13.428;2023-05-07T01:46:06;101706.41;;;12.17;68.21
75420;BME280;63998;52.488;13.428;2023-05-07T01:48:35;101711.63;;;12.17;68.19
75420;BME280;63998;52.488;13.428;2023-05-07T01:51:01;101705.50;;;12.15;69.22
75420;BME280;63998;52.488;13.428;2023-05-07T01:53:35;101703.81;;;12.18;68.92
75420;BME280;63998;52.488;13.428;2023-05-07T01:56:01;101715.94;;;12.15;68.29
75420;BME280;63998;52.488;13.428;2023-05-07T01:58:26;101709.88;;;12.16;68.20
75420;BME280;63998;52.488;13.428;2023-05-07T02:00:51;101708.13;;;12.15;67.19
75420;BME280;63998;52.488;13.428;2023-05-07T02:03:16;101708.19;;;12.21;67.04
75420;BME280;63998;52.488;13.428;2023-05-07T02:05:44;101714.19;;;12.15;67.48
75420;BME280;63998;52.488;13.428;2023-05-07T02:08:10;101711.63;;;12.17;66.75
75420;BME280;63998;52.488;13.428;2023-05-07T02:10:37;101712.50;;;12.17;67.09
75420;BME280;63998;52.488;13.428;2023-05-07T02:13:02;101714.16;;;12.09;67.24
75420;BME280;63998;52.488;13.428;2023-05-07T02:15:30;101713.13;;;11.97;66.79
75420;BME280;63998;52.488;13.428;2023-05-07T02:18:10;101714.66;;;11.79;66.33
75420;BME280;63998;52.488;13.428;2023-05-07T02:20:35;101719.09;;;11.86;67.73
75420;BME280;63998;52.488;13.428;2023-05-07T02:23:01;101728.75;;;11.97;69.12
75420;BME280;63998;52.488;13.428;2023-05-07T02:25:26;101720.94;;;11.95;68.20
75420;BME280;63998;52.488;13.428;2023-05-07T02:27:54;101716.50;;;11.86;67.20
75420;BME280;63998;52.488;13.428;2023-05-07T02:30:19;101726.00;;;11.84;67.92
75420;BME280;63998;52.488;13.428;2023-05-07T02:32:48;101728.59;;;11.84;68.42
75420;BME280;63998;52.488;13.428;2023-05-07T02:35:13;101727.66;;;11.79;68.68
75420;BME280;63998;52.488;13.428;2023-05-07T02:37:41;101716.22;;;11.68;67.50
75420;BME280;63998;52.488;13.428;2023-05-07T02:40:12;101730.16;;;11.73;68.11
75420;BME280;63998;52.488;13.428;2023-05-07T02:42:37;101729.25;;;11.70;67.60
75420;BME280;63998;52.488;13.428;2023-05-07T02:45:03;101724.81;;;11.64;67.30
75420;BME280;63998;52.488;13.428;2023-05-07T02:47:30;101730.06;;;11.67;67.78
75420;BME280;63998;52.488;13.428;2023-05-07T02:49:58;101721.50;;;11.74;68.23
75420;BME280;63998;52.488;13.428;2023-05-07T02:52:26;101733.91;;;11.94;68.90
75420;BME280;63998;52.488;13.428;2023-05-07T02:54:51;101730.56;;;12.04;68.61
75420;BME280;63998;52.488;13.428;2023-05-07T02:57:17;101734.84;;;11.97;66.72
75420;BME280;63998;52.488;13.428;2023-05-07T02:59:43;101737.53;;;12.05;67.61
75420;BME280;63998;52.488;13.428;2023-05-07T03:02:10;101736.66;;;12.04;67.76
75420;BME280;63998;52.488;13.428;2023-05-07T03:04:39;101737.56;;;12.08;68.30
75420;BME280;63998;52.488;13.428;2023-05-07T03:07:04;101744.44;;;12.03;67.94
75420;BME280;63998;52.488;13.428;2023-05-07T03:09:29;101745.25;;;11.97;68.04
75420;BME280;63998;52.488;13.428;2023-05-07T03:11:57;101745.25;;;12.00;68.62
75420;BME280;63998;52.488;13.428;2023-05-07T03:14:25;101742.78;;;12.08;68.57
75420;BME280;63998;52.488;13.428;2023-05-07T03:16:50;101744.53;;;12.09;67.66
75420;BME280;63998;52.488;13.428;2023-05-07T03:19:16;101745.47;;;12.17;67.54
75420;BME280;63998;52.488;13.428;2023-05-07T03:21:41;101746.38;;;12.19;66.59
75420;BME280;63998;52.488;13.428;2023-05-07T03:24:09;101746.44;;;12.23;67.79
75420;BME280;63998;52.488;13.428;2023-05-07T03:26:34;101749.88;;;12.21;66.56
75420;BME280;63998;52.488;13.428;2023-05-07T03:29:02;101747.25;;;12.19;66.36
75420;BME280;63998;52.488;13.428;2023-05-07T03:31:27;101755.13;;;12.27;67.76
75420;BME280;63998;52.488;13.428;2023-05-07T03:33:56;101753.31;;;12.18;66.64
75420;BME280;63998;52.488;13.428;2023-05-07T03:36:22;101756.78;;;12.19;67.47
75420;BME280;63998;52.488;13.428;2023-05-07T03:38:48;101749.66;;;12.03;66.40
75420;BME280;63998;52.488;13.428;2023-05-07T03:41:13;101746.84;;;11.86;66.34
75420;BME280;63998;52.488;13.428;2023-05-07T03:43:39;101756.28;;;11.79;67.09
75420;BME280;63998;52.488;13.428;2023-05-07T03:46:07;101761.56;;;11.82;66.97
75420;BME280;63998;52.488;13.428;2023-05-07T03:48:32;101760.69;;;11.82;66.65
75420;BME280;63998;52.488;13.428;2023-05-07T03:50:58;101775.31;;;11.75;67.32
75420;BME280;63998;52.488;13.428;2023-05-07T03:53:26;101768.47;;;11.80;67.12
75420;BME280;63998;52.488;13.428;2023-05-07T03:55:51;101773.50;;;11.71;67.62
75420;BME280;63998;52.488;13.428;2023-05-07T03:58:16;101776.97;;;11.70;67.83
75420;BME280;63998;52.488;13.428;2023-05-07T04:00:44;101769.91;;;11.63;67.14
75420;BME280;63998;52.488;13.428;2023-05-07T04:03:09;101775.25;;;11.72;67.67
75420;BME280;63998;52.488;13.428;2023-05-07T04:05:37;101765.72;;;11.71;68.32
75420;BME280;63998;52.488;13.428;2023-05-07T04:08:02;101773.50;;;11.71;68.36
75420;BME280;63998;52.488;13.428;2023-05-07T04:10:31;101766.50;;;11.67;68.11
75420;BME280;63998;52.488;13.428;2023-05-07T04:12:56;101777.06;;;11.76;68.56
75420;BME280;63998;52.488;13.428;2023-05-07T04:15:22;101770.88;;;11.68;67.85
75420;BME280;63998;52.488;13.428;2023-05-07T04:17:48;101765.72;;;11.73;68.68
75420;BME280;63998;52.488;13.428;2023-05-07T04:20:16;101775.31;;;11.75;68.00
75420;BME280;63998;52.488;13.428;2023-05-07T04:22:43;101771.66;;;11.64;67.52
75420;BME280;63998;52.488;13.428;2023-05-07T04:25:15;101780.38;;;11.66;68.39
75420;BME280;63998;52.488;13.428;2023-05-07T04:27:41;101779.44;;;11.63;66.94
75420;BME280;63998;52.488;13.428;2023-05-07T04:30:07;101783.00;;;11.68;68.04
75420;BME280;63998;52.488;13.428;2023-05-07T04:32:32;101782.97;;;11.66;67.44
75420;BME280;63998;52.488;13.428;2023-05-07T04:34:57;101783.88;;;11.68;68.33
75420;BME280;63998;52.488;13.428;2023-05-07T04:37:23;101785.69;;;11.72;68.43
75420;BME280;63998;52.488;13.428;2023-05-07T04:39:48;101789.28;;;11.80;67.54
75420;BME280;63998;52.488;13.428;2023-05-07T04:42:19;101787.63;;;11.85;68.21
75420;BME280;63998;52.488;13.428;2023-05-07T04:44:45;101790.22;;;11.87;67.11
75420;BME280;63998;52.488;13.428;2023-05-07T04:47:13;101802.94;;;11.67;65.59
75420;BME280;63998;52.488;13.428;2023-05-07T04:49:38;101801.19;;;11.66;66.47
75420;BME280;63998;52.488;13.428;2023-05-07T04:52:04;101799.53;;;11.71;67.88
75420;BME280;63998;52.488;13.428;2023-05-07T04:54:31;101811.59;;;11.66;67.69
75420;BME280;63998;52.488;13.428;2023-05-07T04:56:57;101796.97;;;11.73;67.13
75420;BME280;63998;52.488;13.428;2023-05-07T04:59:22;101803.22;;;11.84;67.04
75420;BME280;63998;52.488;13.428;2023-05-07T05:01:47;101806.72;;;11.87;66.82
75420;BME280;63998;52.488;13.428;2023-05-07T05:04:13;101808.47;;;11.85;66.20
75420;BME280;63998;52.488;13.428;2023-05-07T05:06:38;101809.44;;;11.95;67.39
75420;BME280;63998;52.488;13.428;2023-05-07T05:09:04;101810.38;;;12.02;66.63
75420;BME280;63998;52.488;13.428;2023-05-07T05:11:30;101812.25;;;12.09;65.86
75420;BME280;63998;52.488;13.428;2023-05-07T05:13:55;101809.59;;;12.06;65.37
75420;BME280;63998;52.488;13.428;2023-05-07T05:16:21;101812.19;;;12.06;63.93
75420;BME280;63998;52.488;13.428;2023-05-07T05:18:46;101812.28;;;12.15;64.83
75420;BME280;63998;52.488;13.428;2023-05-07T05:21:11;101815.84;;;12.20;64.13
75420;BME280;63998;52.488;13.428;2023-05-07T05:23:37;101819.34;;;12.22;64.46
75420;BME280;63998;52.488;13.428;2023-05-07T05:26:04;101821.00;;;12.17;64.40
75420;BME280;63998;52.488;13.428;2023-05-07T05:28:29;101816.31;;;11.90;63.88
75420;BME280;63998;52.488;13.428;2023-05-07T05:30:57;101818.00;;;11.88;65.07
75420;BME280;63998;52.488;13.428;2023-05-07T05:33:25;101822.50;;;12.00;66.13
75420;BME280;63998;52.488;13.428;2023-05-07T05:35:50;101820.91;;;12.08;64.86
75420;BME280;63998;52.488;13.428;2023-05-07T05:38:15;101821.00;;;12.17;64.20
75420;BME280;63998;52.488;13.428;2023-05-07T05:40:41;101815.84;;;12.20;63.98
75420;BME280;63998;52.488;13.428;2023-05-07T05:43:06;101817.66;;;12.27;64.58
75420;BME280;63998;52.488;13.428;2023-05-07T05:45:31;101821.13;;;12.26;63.71
75420;BME280;63998;52.488;13.428;2023-05-07T05:47:59;101820.22;;;12.21;63.13
75420;BME280;63998;52.488;13.428;2023-05-07T05:50:25;101824.41;;;12.10;63.34
75420;BME280;63998;52.488;13.428;2023-05-07T05:52:50;101822.72;;;12.15;63.71
75420;BME280;63998;52.488;13.428;2023-05-07T05:55:18;101822.81;;;12.24;63.75
75420;BME280;63998;52.488;13.428;2023-05-07T05:57:43;101829.88;;;12.31;63.10
75420;BME280;63998;52.488;13.428;2023-05-07T06:00:09;101834.25;;;12.32;62.71
75420;BME280;63998;52.488;13.428;2023-05-07T06:02:35;101838.69;;;12.42;63.16
75420;BME280;63998;52.488;13.428;2023-05-07T06:05:00;101832.59;;;12.42;62.16
75420;BME280;63998;52.488;13.428;2023-05-07T06:07:26;101840.31;;;12.33;61.86
75420;BME280;63998;52.488;13.428;2023-05-07T06:09:51;101843.09;;;12.46;63.28
75420;BME280;63998;52.488;13.428;2023-05-07T06:12:20;101842.41;;;12.63;62.31
75420;BME280;63998;52.488;13.428;2023-05-07T06:14:46;101839.06;;;12.76;62.91
75420;BME280;63998;52.488;13.428;2023-05-07T06:17:13;101841.72;;;12.79;62.59
75420;BME280;63998;52.488;13.428;2023-05-07T06:19:38;101835.69;;;12.86;61.69
75420;BME280;63998;52.488;13.428;2023-05-07T06:22:04;101846.28;;;12.98;61.50
75420;BME280;63998;52.488;13.428;2023-05-07T06:24:29;101851.34;;;12.86;60.22
75420;BME280;63998;52.488;13.428;2023-05-07T06:26:55;101847.00;;;12.83;60.77
75420;BME280;63998;52.488;13.428;2023-05-07T06:29:25;101851.34;;;12.86;60.51
75420;BME280;63998;52.488;13.428;2023-05-07T06:31:54;101853.09;;;12.87;61.04
75420;BME280;63998;52.488;13.428;2023-05-07T06:34:22;101851.41;;;12.92;61.33
75420;BME280;63998;52.488;13.428;2023-05-07T06:36:50;101855.69;;;12.87;60.46
75420;BME280;63998;52.488;13.428;2023-05-07T06:39:18;101854.19;;;13.07;61.53
75420;BME280;63998;52.488;13.428;2023-05-07T06:41:43;101861.06;;;13.02;59.04
75420;BME280;63998;52.488;13.428;2023-05-07T06:44:08;101857.31;;;12.76;59.94
75420;BME280;63998;52.488;13.428;2023-05-07T06:46:33;101865.19;;;12.79;60.37
75420;BME280;63998;52.488;13.428;2023-05-07T06:49:01;101870.94;;;12.52;59.63
75420;BME280;63998;52.488;13.428;2023-05-07T06:51:26;101867.72;;;12.74;61.57
75420;BME280;63998;52.488;13.428;2023-05-07T06:53:52;101872.16;;;12.81;60.67
75420;BME280;63998;52.488;13.428;2023-05-07T06:56:17;101873.28;;;13.05;61.05
75420;BME280;63998;52.488;13.428;2023-05-07T06:58:42;101882.13;;;13.17;60.76
75420;BME280;63998;52.488;13.428;2023-05-07T07:01:08;101875.81;;;12.99;58.53
75420;BME280;63998;52.488;13.428;2023-05-07T07:03:38;101881.91;;;12.98;59.90
75420;BME280;63998;52.488;13.428;2023-05-07T07:06:06;101881.63;;;12.72;59.27
75420;BME280;63998;52.488;13.428;2023-05-07T07:08:31;101890.50;;;12.90;61.19
75420;BME280;63998;52.488;13.428;2023-05-07T07:10:57;101878.41;;;12.95;60.53
75420;BME280;63998;52.488;13.428;2023-05-07T07:13:25;101873.44;;;13.18;59.91
75420;BME280;63998;52.488;13.428;2023-05-07T07:15:51;101879.81;;;13.51;60.47
75420;BME280;63998;52.488;13.428;2023-05-07T07:18:17;101868.75;;;13.81;59.41
75420;BME280;63998;52.488;13.428;2023-05-07T07:20:43;101871.31;;;13.76;57.10
75420;BME280;63998;52.488;13.428;2023-05-07T07:23:09;101873.97;;;13.87;57.49
75420;BME280;63998;52.488;13.428;2023-05-07T07:25:37;101878.25;;;13.74;56.42
75420;BME280;63998;52.488;13.428;2023-05-07T07:28:05;101872.97;;;13.65;57.11
75420;BME280;63998;52.488;13.428;2023-05-07T07:30:31;101873.09;;;13.80;57.73
75420;BME280;63998;52.488;13.428;2023-05-07T07:32:56;101874.94;;;13.96;57.30
75420;BME280;63998;52.488;13.428;2023-05-07T07:35:27;101878.34;;;13.83;55.78
75420;BME280;63998;52.488;13.428;2023-05-07T07:37:55;101879.25;;;13.91;56.06
75420;BME280;63998;52.488;13.428;2023-05-07T07:40:20;101869.78;;;14.09;56.93
75420;BME280;63998;52.488;13.428;2023-05-07T07:42:45;101862.91;;;14.29;56.47
75420;BME280;63998;52.488;13.428;2023-05-07T07:45:11;101852.56;;;14.47;56.95
75420;BME280;63998;52.488;13.428;2023-05-07T07:47:37;101856.97;;;14.62;56.30
75420;BME280;63998;52.488;13.428;2023-05-07T07:50:02;101863.09;;;14.71;55.72
75420;BME280;63998;52.488;13.428;2023-05-07T07:52:28;101860.47;;;14.58;54.51
75420;BME280;63998;52.488;13.428;2023-05-07T07:54:56;101862.25;;;14.74;55.57
75420;BME280;63998;52.488;13.428;2023-05-07T07:57:21;101854.38;;;14.66;54.48
75420;BME280;63998;52.488;13.428;2023-05-07T07:59:46;101858.69;;;14.52;54.10
75420;BME280;63998;52.488;13.428;2023-05-07T08:02:14;101856.13;;;14.58;54.33
75420;BME280;63998;52.488;13.428;2023-05-07T08:04:39;101860.50;;;14.76;55.16
75420;BME280;63998;52.488;13.428;2023-05-07T08:07:09;101871.00;;;14.97;54.92
75420;BME280;63998;52.488;13.428;2023-05-07T08:33:19;101864.09;;;15.59;51.22
75420;BME280;63998;52.488;13.428;2023-05-07T08:35:44;101865.88;;;15.69;51.45
75420;BME280;63998;52.488;13.428;2023-05-07T08:55:13;101872.81;;;15.52;50.63
75420;BME280;63998;52.488;13.428;2023-05-07T08:57:42;101871.97;;;15.65;50.31
75420;BME280;63998;52.488;13.428;2023-05-07T09:06:25;101868.38;;;16.08;50.25
75420;BME280;63998;52.488;13.428;2023-05-07T09:08:54;101883.28;;;16.06;49.88
75420;BME280;63998;52.488;13.428;2023-05-07T09:11:23;101882.38;;;16.16;50.60
75420;BME280;63998;52.488;13.428;2023-05-07T09:13:53;101874.44;;;16.35;49.38
75420;BME280;63998;52.488;13.428;2023-05-07T09:16:20;101876.13;;;16.49;49.49
75420;BME280;63998;52.488;13.428;2023-05-07T09:18:45;101880.59;;;16.31;48.79
75420;BME280;63998;52.488;13.428;2023-05-07T09:21:16;101886.63;;;16.46;49.36
75420;BME280;63998;52.488;13.428;2023-05-07T09:23:41;101883.09;;;16.57;49.83
75420;BME280;63998;52.488;13.428;2023-05-07T09:26:07;101884.03;;;16.36;48.38
75420;BME280;63998;52.488;13.428;2023-05-07T09:28:40;101891.03;;;16.43;49.42
75420;BME280;63998;52.488;13.428;2023-05-07T09:31:08;101889.22;;;16.51;49.26
75420;BME280;63998;52.488;13.428;2023-05-07T09:33:33;101881.38;;;16.54;48.61
75420;BME280;63998;52.488;13.428;2023-05-07T09:36:02;101882.19;;;16.59;48.07
75420;BME280;63998;52.488;13.428;2023-05-07T09:38:30;101883.91;;;16.72;49.02
75420;BME280;63998;52.488;13.428;2023-05-07T09:43:35;101889.91;;;16.99;47.80
75420;BME280;63998;52.488;13.428;2023-05-07T09:46:14;101887.31;;;16.93;47.16
75420;BME280;63998;52.488;13.428;2023-05-07T09:48:41;101889.09;;;16.84;47.56
75420;BME280;63998;52.488;13.428;2023-05-07T09:51:18;101892.59;;;16.83;47.34
75420;BME280;63998;52.488;13.428;2023-05-07T09:53:48;101899.56;;;16.94;47.63
75420;BME280;63998;52.488;13.428;2023-05-07T09:56:19;101882.81;;;17.08;46.58
75420;BME280;63998;52.488;13.428;2023-05-07T09:58:46;101891.72;;;16.89;46.16
75420;BME280;63998;52.488;13.428;2023-05-07T10:01:15;101899.72;;;16.56;46.14
75420;BME280;63998;52.488;13.428;2023-05-07T10:03:48;101892.72;;;16.64;47.63
75420;BME280;63998;52.488;13.428;2023-05-07T10:06:15;101890.97;;;16.67;47.53
75420;BME280;63998;52.488;13.428;2023-05-07T10:08:42;101891.78;;;16.77;47.07
75420;BME280;63998;52.488;13.428;2023-05-07T10:11:12;101893.66;;;16.37;46.37
75420;BME280;63998;52.488;13.428;2023-05-07T10:13:40;101896.34;;;16.09;46.75
75420;BME280;63998;52.488;13.428;2023-05-07T10:16:06;101892.81;;;16.29;48.04
75420;BME280;63998;52.488;13.428;2023-05-07T10:18:33;101890.06;;;16.61;48.92
75420;BME280;63998;52.488;13.428;2023-05-07T10:21:06;101888.28;;;16.75;46.81
75420;BME280;63998;52.488;13.428;2023-05-07T10:23:33;101894.34;;;16.81;46.45
75420;BME280;63998;52.488;13.428;2023-05-07T10:26:02;101891.66;;;16.97;46.84
75420;BME280;63998;52.488;13.428;2023-05-07T10:28:29;101901.19;;;17.13;48.46
75420;BME280;63998;52.488;13.428;2023-05-07T10:33:51;101896.81;;;17.10;45.31
75420;BME280;63998;52.488;13.428;2023-05-07T10:36:18;101888.84;;;17.24;47.20
75420;BME280;63998;52.488;13.428;2023-05-07T10:38:47;101887.91;;;17.31;45.42
75420;BME280;63998;52.488;13.428;2023-05-07T10:41:12;101885.28;;;17.34;44.59
75420;BME280;63998;52.488;13.428;2023-05-07T10:43:42;101892.06;;;17.63;46.08
75420;BME280;63998;52.488;13.428;2023-05-07T10:51:33;101889.22;;;17.88;43.64
75420;BME280;63998;52.488;13.428;2023-05-07T10:56:40;101895.16;;;18.07;45.06
75420;BME280;63998;52.488;13.428;2023-05-07T11:04:28;101888.47;;;17.73;43.46
75420;BME280;63998;52.488;13.428;2023-05-07T11:15:08;101880.63;;;18.51;43.50
75420;BME280;63998;52.488;13.428;2023-05-07T11:17:35;101876.91;;;18.67;40.55
75420;BME280;63998;52.488;13.428;2023-05-07T11:20:19;101877.59;;;18.83;39.57
75420;BME280;63998;52.488;13.428;2023-05-07T11:22:45;101870.22;;;19.06;38.84
75420;BME280;63998;52.488;13.428;2023-05-07T11:25:17;101863.88;;;19.21;40.84
75420;BME280;63998;52.488;13.428;2023-05-07T11:27:43;101869.59;;;18.90;38.61
75420;BME280;63998;52.488;13.428;2023-05-07T11:30:08;101863.41;;;19.51;39.10
75420;BME280;63998;52.488;13.428;2023-05-07T11:32:34;101866.78;;;19.59;39.49
75420;BME280;63998;52.488;13.428;2023-05-07T11:35:00;101862.31;;;19.63;40.71
75420;BME280;63998;52.488;13.428;2023-05-07T11:37:27;101866.69;;;19.65;41.27
75420;BME280;63998;52.488;13.428;2023-05-07T11:40:05;101859.38;;;19.80;39.53
75420;BME280;63998;52.488;13.428;2023-05-07T11:45:01;101867.38;;;19.20;39.72
75420;BME280;63998;52.488;13.428;2023-05-07T11:47:30;101862.84;;;19.29;38.66
75420;BME280;63998;52.488;13.428;2023-05-07T11:49:55;101862.38;;;19.60;38.24
75420;BME280;63998;52.488;13.428;2023-05-07T11:52:24;101859.09;;;19.95;37.80
75420;BME280;63998;52.488;13.428;2023-05-07T11:54:57;101864.53;;;19.86;36.50
75420;BME280;63998;52.488;13.428;2023-05-07T11:57:26;101863.22;;;20.53;36.76
75420;BME280;63998;52.488;13.428;2023-05-07T11:59:58;101858.97;;;20.87;35.48
75420;BME280;63998;52.488;13.428;2023-05-07T12:02:24;101862.56;;;21.57;35.61
75420;BME280;63998;52.488;13.428;2023-05-07T12:04:54;101855.69;;;21.84;34.74
75420;BME280;63998;52.488;13.428;2023-05-07T12:07:23;101853.56;;;21.97;33.85
75420;BME280;63998;52.488;13.428;2023-05-07T12:09:48;101851.09;;;21.91;34.20
75420;BME280;63998;52.488;13.428;2023-05-07T12:12:16;101855.03;;;22.39;34.77
75420;BME280;63998;52.488;13.428;2023-05-07T12:14:43;101853.56;;;22.88;31.47
75420;BME280;63998;52.488;13.428;2023-05-07T12:17:13;101849.34;;;23.10;31.38
75420;BME280;63998;52.488;13.428;2023-05-07T12:19:41;101850.56;;;23.26;32.01
75420;BME280;63998;52.488;13.428;2023-05-07T12:22:08;101856.03;;;23.48;30.85
75420;BME280;63998;52.488;13.428;2023-05-07T12:27:09;101850.97;;;23.14;31.46
75420;BME280;63998;52.488;13.428;2023-05-07T12:29:34;101849.66;;;23.54;30.34
75420;BME280;63998;52.488;13.428;2023-05-07T12:32:02;101850.28;;;23.36;29.85
75420;BME280;63998;52.488;13.428;2023-05-07T12:34:33;101851.59;;;23.22;30.52
75420;BME280;63998;52.488;13.428;2023-05-07T12:37:02;101858.09;;;23.12;31.23
75420;BME280;63998;52.488;13.428;2023-05-07T12:39:28;101853.69;;;22.85;30.40
75420;BME280;63998;52.488;13.428;2023-05-07T12:41:55;101857.53;;;23.57;31.17
75420;BME280;63998;52.488;13.428;2023-05-07T12:44:28;101852.91;;;23.62;30.83
75420;BME280;63998;52.488;13.428;2023-05-07T12:46:54;101846.44;;;23.44;31.31
75420;BME280;63998;52.488;13.428;2023-05-07T12:49:19;101852.19;;;23.58;31.38
75420;BME280;63998;52.488;13.428;2023-05-07T12:51:47;101857.03;;;24.20;30.52
75420;BME280;63998;52.488;13.428;2023-05-07T12:54:35;101855.72;;;24.55;28.83
75420;BME280;63998;52.488;13.428;2023-05-07T12:57:05;101847.03;;;24.74;27.93
75420;BME280;63998;52.488;13.428;2023-05-07T13:01:57;101857.84;;;25.14;28.16
75420;BME280;63998;52.488;13.428;2023-05-07T13:04:25;101859.66;;;24.68;27.93
75420;BME280;63998;52.488;13.428;2023-05-07T13:06:51;101852.28;;;24.30;28.81
75420;BME280;63998;52.488;13.428;2023-05-07T13:09:18;101862.75;;;24.10;29.08
75420;BME280;63998;52.488;13.428;2023-05-07T13:11:44;101861.88;;;23.84;28.78
75420;BME280;63998;52.488;13.428;2023-05-07T13:14:11;101858.88;;;22.88;29.54
75420;BME280;63998;52.488;13.428;2023-05-07T13:16:37;101861.63;;;22.85;31.71
75420;BME280;63998;52.488;13.428;2023-05-07T13:19:02;101861.47;;;23.17;29.83
75420;BME280;63998;52.488;13.428;2023-05-07T13:21:28;101857.78;;;22.95;29.48
75420;BME280;63998;52.488;13.428;2023-05-07T13:23:53;101856.78;;;22.99;30.16
75420;BME280;63998;52.488;13.428;2023-05-07T13:26:18;101863.19;;;23.18;29.58
75420;BME280;63998;52.488;13.428;2023-05-07T13:28:46;101863.09;;;22.64;30.34
75420;BME280;63998;52.488;13.428;2023-05-07T13:31:14;101854.28;;;22.64;31.62
75420;BME280;63998;52.488;13.428;2023-05-07T13:33:39;101857.69;;;23.24;30.57
75420;BME280;63998;52.488;13.428;2023-05-07T13:36:05;101860.09;;;23.60;31.33
75420;BME280;63998;52.488;13.428;2023-05-07T13:38:30;101854.50;;;23.68;29.30
75420;BME280;63998;52.488;13.428;2023-05-07T13:40:56;101843.78;;;24.44;28.53
75420;BME280;63998;52.488;13.428;2023-05-07T13:43:21;101855.47;;;24.15;28.11
75420;BME280;63998;52.488;13.428;2023-05-07T13:45:47;101848.38;;;23.90;28.74
75420;BME280;63998;52.488;13.428;2023-05-07T13:48:12;101851.75;;;23.71;28.05
75420;BME280;63998;52.488;13.428;2023-05-07T13:50:41;101851.56;;;23.75;28.36
75420;BME280;63998;52.488;13.428;2023-05-07T13:53:07;101852.72;;;23.68;27.86
75420;BME280;63998;52.488;13.428;2023-05-07T13:55:33;101860.59;;;22.89;28.89
75420;BME280;63998;52.488;13.428;2023-05-07T13:57:59;101855.66;;;23.33;28.75
75420;BME280;63998;52.488;13.428;2023-05-07T14:00:26;101846.88;;;23.83;28.44